createdAt,value
2017-12-21T00:00:51.448Z,1038
2017-12-21T00:01:51.375Z,1037.9
2017-12-21T00:02:51.248Z,1038
2017-12-21T00:03:51.050Z,1038
2017-12-21T00:04:51.192Z,1038
2017-12-21T00:05:51.516Z,1038.1
2017-12-21T00:06:51.252Z,1038.1
2017-12-21T00:07:51.476Z,1038.1
2017-12-21T00:08:51.260Z,1038
2017-12-21T00:09:51.492Z,1038
2017-12-21T00:10:51.252Z,1038
2017-12-21T00:11:51.276Z,1038.1
2017-12-21T00:12:51.096Z,1038
2017-12-21T00:13:51.225Z,1038
2017-12-21T00:14:51.365Z,1038
2017-12-21T00:15:51.083Z,1038
2017-12-21T00:16:51.450Z,1037.9
2017-12-21T00:17:51.304Z,1037.9
2017-12-21T00:18:51.245Z,1037.9
2017-12-21T00:19:51.053Z,1037.9
2017-12-21T00:20:51.099Z,1037.9
2017-12-21T00:21:51.224Z,1037.9
2017-12-21T00:22:51.016Z,1037.9
2017-12-21T00:23:51.056Z,1037.9
2017-12-21T00:24:51.168Z,1037.8
2017-12-21T00:25:51.128Z,1037.8
2017-12-21T00:26:51.270Z,1037.8
2017-12-21T00:27:51.282Z,1037.7
2017-12-21T00:28:51.478Z,1037.7
2017-12-21T00:29:51.316Z,1037.7
2017-12-21T00:30:51.053Z,1037.7
2017-12-21T00:31:51.048Z,1037.6
2017-12-21T00:32:51.270Z,1037.7
2017-12-21T00:33:51.132Z,1037.7
2017-12-21T00:34:51.372Z,1037.7
2017-12-21T00:35:51.274Z,1037.7
2017-12-21T00:36:51.318Z,1037.7
2017-12-21T00:37:51.261Z,1037.8
2017-12-21T00:38:51.219Z,1037.8
2017-12-21T00:39:51.543Z,1037.7
2017-12-21T00:40:51.245Z,1037.7
2017-12-21T00:41:51.278Z,1037.7
2017-12-21T00:42:51.052Z,1037.6
2017-12-21T00:43:51.221Z,1037.6
2017-12-21T00:44:51.466Z,1037.7
2017-12-21T00:45:51.084Z,1037.6
2017-12-21T00:46:51.488Z,1037.7
2017-12-21T00:47:51.271Z,1037.8
2017-12-21T00:48:51.492Z,1037.8
2017-12-21T00:49:51.500Z,1037.8
2017-12-21T00:50:51.259Z,1037.9
2017-12-21T00:51:51.117Z,1037.9
2017-12-21T00:52:51.279Z,1037.9
2017-12-21T00:53:51.132Z,1037.8
2017-12-21T00:54:51.205Z,1037.7
2017-12-21T00:55:51.303Z,1037.8
2017-12-21T00:56:51.130Z,1037.9
2017-12-21T00:57:51.726Z,1037.9
2017-12-21T00:58:51.477Z,1037.8
2017-12-21T00:59:51.473Z,1037.9
2017-12-21T01:00:51.082Z,1037.9
2017-12-21T01:01:51.270Z,1038
2017-12-21T01:02:51.589Z,1037.8
2017-12-21T01:03:51.519Z,1037.9
2017-12-21T01:04:51.045Z,1037.8
2017-12-21T01:05:51.544Z,1037.9
2017-12-21T01:06:51.470Z,1037.9
2017-12-21T01:07:51.102Z,1037.9
2017-12-21T01:08:51.290Z,1038
2017-12-21T01:09:51.320Z,1038
2017-12-21T01:10:51.087Z,1037.9
2017-12-21T01:11:51.157Z,1037.9
2017-12-21T01:12:51.085Z,1037.8
2017-12-21T01:13:51.083Z,1037.8
2017-12-21T01:14:51.055Z,1037.8
2017-12-21T01:15:51.064Z,1037.8
2017-12-21T01:16:51.326Z,1037.8
2017-12-21T01:17:51.077Z,1037.8
2017-12-21T01:18:51.074Z,1037.8
2017-12-21T01:19:51.308Z,1037.7
2017-12-21T01:20:51.070Z,1037.8
2017-12-21T01:21:51.318Z,1037.6
2017-12-21T01:22:51.536Z,1037.7
2017-12-21T01:23:51.299Z,1037.8
2017-12-21T01:24:51.321Z,1037.7
2017-12-21T01:25:51.103Z,1037.7
2017-12-21T01:26:51.420Z,1037.8
2017-12-21T01:27:51.488Z,1037.8
2017-12-21T01:28:51.081Z,1037.7
2017-12-21T01:29:51.088Z,1037.7
2017-12-21T01:30:51.299Z,1037.7
2017-12-21T01:31:51.553Z,1037.8
2017-12-21T01:32:51.318Z,1037.8
2017-12-21T01:33:51.469Z,1037.8
2017-12-21T01:34:51.296Z,1037.8
2017-12-21T01:35:51.250Z,1037.9
2017-12-21T01:36:51.096Z,1037.9
2017-12-21T01:37:51.328Z,1038
2017-12-21T01:38:51.082Z,1037.9
2017-12-21T01:39:51.137Z,1038
2017-12-21T01:40:51.294Z,1037.9
2017-12-21T01:41:51.337Z,1037.9
2017-12-21T01:42:51.342Z,1038
2017-12-21T01:43:51.294Z,1037.9
2017-12-21T01:44:51.458Z,1037.9
2017-12-21T01:45:51.309Z,1037.7
2017-12-21T01:46:51.296Z,1037.9
2017-12-21T01:47:51.295Z,1037.9
2017-12-21T01:48:51.137Z,1037.8
2017-12-21T01:49:51.092Z,1037.8
2017-12-21T01:50:51.118Z,1037.7
2017-12-21T01:51:51.538Z,1037.6
2017-12-21T01:52:51.311Z,1037.6
2017-12-21T01:53:51.132Z,1037.6
2017-12-21T01:54:51.485Z,1037.5
2017-12-21T01:55:51.270Z,1037.6
2017-12-21T01:56:51.504Z,1037.7
2017-12-21T01:57:51.513Z,1037.7
2017-12-21T01:58:51.088Z,1037.7
2017-12-21T01:59:51.303Z,1037.7
2017-12-21T02:00:51.364Z,1037.7
2017-12-21T02:01:51.462Z,1037.8
2017-12-21T02:02:51.326Z,1037.8
2017-12-21T02:03:51.562Z,1037.7
2017-12-21T02:04:51.101Z,1037.6
2017-12-21T02:05:51.107Z,1037.8
2017-12-21T02:06:51.183Z,1037.7
2017-12-21T02:07:51.478Z,1037.7
2017-12-21T02:08:51.165Z,1037.7
2017-12-21T02:09:51.117Z,1037.6
2017-12-21T02:10:51.332Z,1037.7
2017-12-21T02:11:51.357Z,1037.7
2017-12-21T02:12:51.095Z,1037.7
2017-12-21T02:13:51.317Z,1037.7
2017-12-21T02:14:51.341Z,1037.7
2017-12-21T02:15:51.330Z,1037.6
2017-12-21T02:16:51.500Z,1037.7
2017-12-21T02:17:51.152Z,1037.7
2017-12-21T02:18:51.115Z,1037.7
2017-12-21T02:19:51.540Z,1037.7
2017-12-21T02:20:51.153Z,1037.8
2017-12-21T02:21:51.149Z,1037.7
2017-12-21T02:22:51.362Z,1037.8
2017-12-21T02:23:51.099Z,1037.8
2017-12-21T02:24:51.323Z,1037.8
2017-12-21T02:25:51.342Z,1037.8
2017-12-21T02:26:51.328Z,1037.8
2017-12-21T02:27:51.094Z,1037.8
2017-12-21T02:28:51.280Z,1037.8
2017-12-21T02:29:51.497Z,1037.9
2017-12-21T02:30:51.356Z,1037.9
2017-12-21T02:31:51.354Z,1037.8
2017-12-21T02:32:51.800Z,1037.9
2017-12-21T02:33:51.532Z,1037.8
2017-12-21T02:34:51.368Z,1037.8
2017-12-21T02:35:51.326Z,1037.9
2017-12-21T02:36:51.587Z,1037.9
2017-12-21T02:37:51.206Z,1037.9
2017-12-21T02:38:51.482Z,1037.8
2017-12-21T02:39:51.159Z,1037.8
2017-12-21T02:40:51.713Z,1037.8
2017-12-21T02:41:51.134Z,1037.9
2017-12-21T02:42:51.737Z,1037.9
2017-12-21T02:43:51.357Z,1037.9
2017-12-21T02:44:51.479Z,1037.9
2017-12-21T02:45:51.555Z,1037.9
2017-12-21T02:46:51.530Z,1037.9
2017-12-21T02:47:51.332Z,1037.9
2017-12-21T02:48:51.660Z,1037.9
2017-12-21T02:49:51.554Z,1037.8
2017-12-21T02:50:51.766Z,1037.8
2017-12-21T02:51:51.076Z,1037.8
2017-12-21T02:52:51.739Z,1037.8
2017-12-21T02:53:51.623Z,1037.8
2017-12-21T02:54:51.369Z,1037.9
2017-12-21T02:55:51.558Z,1037.9
2017-12-21T02:56:51.109Z,1037.9
2017-12-21T02:57:51.097Z,1038
2017-12-21T02:58:51.332Z,1037.9
2017-12-21T02:59:51.346Z,1038
2017-12-21T03:00:51.172Z,1038
2017-12-21T03:01:51.312Z,1038
2017-12-21T03:02:51.336Z,1038
2017-12-21T03:03:51.157Z,1038.1
2017-12-21T03:04:51.216Z,1038
2017-12-21T03:05:51.361Z,1038.1
2017-12-21T03:06:51.351Z,1038
2017-12-21T03:07:51.270Z,1038
2017-12-21T03:08:51.126Z,1038
2017-12-21T03:09:51.339Z,1037.9
2017-12-21T03:10:51.306Z,1037.9
2017-12-21T03:11:51.330Z,1037.9
2017-12-21T03:12:51.197Z,1037.9
2017-12-21T03:13:51.136Z,1037.8
2017-12-21T03:14:51.278Z,1037.8
2017-12-21T03:15:51.691Z,1037.8
2017-12-21T03:16:51.143Z,1037.8
2017-12-21T03:17:51.183Z,1037.8
2017-12-21T03:18:51.320Z,1037.8
2017-12-21T03:19:51.407Z,1037.8
2017-12-21T03:20:51.307Z,1037.8
2017-12-21T03:21:51.488Z,1037.8
2017-12-21T03:22:51.298Z,1037.7
2017-12-21T03:23:51.345Z,1037.8
2017-12-21T03:24:51.181Z,1037.7
2017-12-21T03:25:51.137Z,1037.8
2017-12-21T03:26:51.195Z,1037.8
2017-12-21T03:27:51.322Z,1037.8
2017-12-21T03:28:51.322Z,1037.8
2017-12-21T03:29:51.164Z,1037.8
2017-12-21T03:30:51.791Z,1037.8
2017-12-21T03:31:51.365Z,1037.8
2017-12-21T03:32:51.542Z,1037.9
2017-12-21T03:33:51.169Z,1037.9
2017-12-21T03:34:51.354Z,1037.9
2017-12-21T03:35:51.195Z,1037.9
2017-12-21T03:36:51.318Z,1037.9
2017-12-21T03:37:51.127Z,1037.9
2017-12-21T03:38:51.364Z,1037.9
2017-12-21T03:39:51.529Z,1037.8
2017-12-21T03:40:51.178Z,1037.9
2017-12-21T03:41:51.587Z,1037.9
2017-12-21T03:42:51.120Z,1037.8
2017-12-21T03:43:51.416Z,1037.8
2017-12-21T03:44:51.200Z,1037.9
2017-12-21T03:45:51.136Z,1037.9
2017-12-21T03:46:51.347Z,1037.9
2017-12-21T03:47:51.335Z,1037.9
2017-12-21T03:48:51.145Z,1037.9
2017-12-21T03:49:51.418Z,1037.9
2017-12-21T03:50:51.554Z,1037.9
2017-12-21T03:51:51.167Z,1037.9
2017-12-21T03:52:51.341Z,1037.9
2017-12-21T03:53:51.598Z,1038
2017-12-21T03:54:51.363Z,1037.9
2017-12-21T03:55:51.349Z,1037.9
2017-12-21T03:56:51.167Z,1038
2017-12-21T03:57:51.363Z,1038
2017-12-21T03:58:51.591Z,1038
2017-12-21T03:59:51.158Z,1038
2017-12-21T04:00:51.177Z,1038.1
2017-12-21T04:01:51.535Z,1038.1
2017-12-21T04:02:51.386Z,1038.1
2017-12-21T04:03:51.355Z,1038.1
2017-12-21T04:04:51.148Z,1038.1
2017-12-21T04:05:51.215Z,1037.9
2017-12-21T04:06:51.163Z,1038
2017-12-21T04:07:51.337Z,1038.1
2017-12-21T04:08:51.163Z,1038.1
2017-12-21T04:09:51.610Z,1038.1
2017-12-21T04:10:51.132Z,1038.2
2017-12-21T04:11:51.595Z,1038.2
2017-12-21T04:12:51.127Z,1038.2
2017-12-21T04:13:51.344Z,1038.2
2017-12-21T04:14:51.249Z,1038.2
2017-12-21T04:15:51.164Z,1038.2
2017-12-21T04:16:51.344Z,1038.2
2017-12-21T04:17:51.182Z,1038.2
2017-12-21T04:18:51.153Z,1038.2
2017-12-21T04:19:51.138Z,1038.2
2017-12-21T04:20:51.343Z,1038.1
2017-12-21T04:21:51.361Z,1038.1
2017-12-21T04:22:51.203Z,1038.1
2017-12-21T04:23:51.363Z,1038.1
2017-12-21T04:24:51.337Z,1038
2017-12-21T04:25:51.405Z,1038.1
2017-12-21T04:26:51.368Z,1038.1
2017-12-21T04:27:51.165Z,1038.1
2017-12-21T04:28:51.348Z,1038.1
2017-12-21T04:29:51.529Z,1038.1
2017-12-21T04:30:51.432Z,1038
2017-12-21T04:31:51.236Z,1038
2017-12-21T04:32:51.197Z,1038
2017-12-21T04:33:51.178Z,1038
2017-12-21T04:34:51.166Z,1038
2017-12-21T04:35:51.441Z,1037.9
2017-12-21T04:36:51.163Z,1037.9
2017-12-21T04:37:51.485Z,1037.9
2017-12-21T04:38:51.400Z,1037.9
2017-12-21T04:39:51.366Z,1037.8
2017-12-21T04:40:51.111Z,1037.9
2017-12-21T04:41:51.149Z,1037.9
2017-12-21T04:42:51.587Z,1037.9
2017-12-21T04:43:51.180Z,1037.9
2017-12-21T04:44:51.406Z,1037.9
2017-12-21T04:45:51.389Z,1037.9
2017-12-21T04:46:51.174Z,1037.9
2017-12-21T04:47:51.238Z,1037.8
2017-12-21T04:48:51.164Z,1037.8
2017-12-21T04:49:51.397Z,1037.9
2017-12-21T04:50:51.209Z,1037.9
2017-12-21T04:51:51.453Z,1037.9
2017-12-21T04:52:51.569Z,1037.8
2017-12-21T04:53:51.529Z,1037.9
2017-12-21T04:54:51.366Z,1037.8
2017-12-21T04:55:51.363Z,1037.9
2017-12-21T04:56:51.414Z,1037.9
2017-12-21T04:57:51.635Z,1037.9
2017-12-21T04:58:51.361Z,1038
2017-12-21T04:59:51.382Z,1038
2017-12-21T05:00:51.806Z,1038
2017-12-21T05:01:51.376Z,1038
2017-12-21T05:02:51.207Z,1038
2017-12-21T05:03:51.341Z,1038
2017-12-21T05:04:51.173Z,1038
2017-12-21T05:05:51.245Z,1038
2017-12-21T05:06:51.289Z,1038
2017-12-21T05:07:51.433Z,1038
2017-12-21T05:08:51.218Z,1038.1
2017-12-21T05:09:51.189Z,1038.1
2017-12-21T05:10:51.177Z,1038
2017-12-21T05:11:51.538Z,1038
2017-12-21T05:12:51.528Z,1038.1
2017-12-21T05:13:51.615Z,1038
2017-12-21T05:14:51.175Z,1038
2017-12-21T05:15:51.451Z,1038
2017-12-21T05:16:51.362Z,1038
2017-12-21T05:17:51.869Z,1038
2017-12-21T05:18:51.343Z,1038
2017-12-21T05:19:51.579Z,1038
2017-12-21T05:20:51.229Z,1038
2017-12-21T05:21:51.193Z,1038
2017-12-21T05:22:51.464Z,1037.9
2017-12-21T05:23:51.380Z,1037.9
2017-12-21T05:24:51.171Z,1037.8
2017-12-21T05:25:51.667Z,1037.9
2017-12-21T05:26:51.384Z,1037.9
2017-12-21T05:27:51.446Z,1037.9
2017-12-21T05:28:51.378Z,1037.7
2017-12-21T05:29:51.347Z,1037.8
2017-12-21T05:30:51.226Z,1037.9
2017-12-21T05:31:51.572Z,1037.9
2017-12-21T05:32:51.435Z,1037.9
2017-12-21T05:33:51.207Z,1037.9
2017-12-21T05:34:51.149Z,1037.9
2017-12-21T05:35:51.425Z,1037.9
2017-12-21T05:36:51.143Z,1037.9
2017-12-21T05:37:51.607Z,1037.9
2017-12-21T05:38:51.397Z,1037.9
2017-12-21T05:39:51.199Z,1037.9
2017-12-21T05:40:51.831Z,1037.7
2017-12-21T05:41:51.562Z,1037.9
2017-12-21T05:42:51.207Z,1037.9
2017-12-21T05:43:51.173Z,1037.8
2017-12-21T05:44:51.218Z,1037.9
2017-12-21T05:45:51.728Z,1037.8
2017-12-21T05:46:51.455Z,1037.7
2017-12-21T05:47:51.211Z,1037.8
2017-12-21T05:48:51.384Z,1037.8
2017-12-21T05:49:51.215Z,1037.8
2017-12-21T05:50:51.429Z,1037.8
2017-12-21T05:51:51.186Z,1037.8
2017-12-21T05:52:51.627Z,1037.8
2017-12-21T05:53:51.420Z,1037.8
2017-12-21T05:54:51.363Z,1037.8
2017-12-21T05:55:51.229Z,1037.7
2017-12-21T05:56:51.675Z,1037.8
2017-12-21T05:57:51.387Z,1037.8
2017-12-21T05:58:51.434Z,1037.8
2017-12-21T05:59:51.217Z,1037.8
2017-12-21T06:00:51.341Z,1037.8
2017-12-21T06:01:51.445Z,1037.8
2017-12-21T06:02:51.236Z,1037.7
2017-12-21T06:03:51.203Z,1037.9
2017-12-21T06:04:51.824Z,1037.8
2017-12-21T06:05:51.402Z,1037.9
2017-12-21T06:06:51.213Z,1037.9
2017-12-21T06:07:51.451Z,1037.8
2017-12-21T06:08:51.603Z,1037.7
2017-12-21T06:09:51.432Z,1037.8
2017-12-21T06:10:51.484Z,1037.8
2017-12-21T06:11:51.449Z,1037.8
2017-12-21T06:12:51.438Z,1037.9
2017-12-21T06:13:51.208Z,1037.9
2017-12-21T06:14:52.353Z,1037.8
2017-12-21T06:15:52.449Z,1037.9
2017-12-21T06:16:51.775Z,1037.9
2017-12-21T06:17:52.074Z,1037.9
2017-12-21T06:18:52.965Z,1037.9
2017-12-21T06:19:52.631Z,1038
2017-12-21T06:20:52.347Z,1037.8
2017-12-21T06:21:52.592Z,1037.9
2017-12-21T06:22:51.691Z,1037.9
2017-12-21T06:23:51.501Z,1037.9
2017-12-21T06:25:05.027Z,1035.2
2017-12-21T06:25:51.441Z,1037.9
2017-12-21T06:26:51.568Z,1037.9
2017-12-21T06:27:51.792Z,1037.9
2017-12-21T06:28:51.609Z,1037.9
2017-12-21T06:29:51.267Z,1037.8
2017-12-21T06:30:51.756Z,1037.9
2017-12-21T06:31:51.340Z,1037.9
2017-12-21T06:32:51.227Z,1037.9
2017-12-21T06:33:51.268Z,1037.8
2017-12-21T06:34:51.659Z,1037.8
2017-12-21T06:35:51.242Z,1037.8
2017-12-21T06:36:51.210Z,1037.8
2017-12-21T06:37:51.470Z,1037.8
2017-12-21T06:38:51.202Z,1037.9
2017-12-21T06:39:51.264Z,1037.9
2017-12-21T06:40:51.437Z,1037.9
2017-12-21T06:41:51.592Z,1037.9
2017-12-21T06:42:51.553Z,1037.8
2017-12-21T06:43:51.453Z,1037.8
2017-12-21T06:44:51.813Z,1037.8
2017-12-21T06:45:51.230Z,1037.8
2017-12-21T06:46:51.715Z,1037.8
2017-12-21T06:47:51.880Z,1037.8
2017-12-21T06:48:51.233Z,1037.8
2017-12-21T06:49:51.221Z,1037.8
2017-12-21T06:50:51.449Z,1037.8
2017-12-21T06:51:51.401Z,1037.8
2017-12-21T06:52:51.221Z,1037.8
2017-12-21T06:53:51.524Z,1037.8
2017-12-21T06:54:51.252Z,1037.8
2017-12-21T06:55:51.614Z,1037.8
2017-12-21T06:56:51.453Z,1037.7
2017-12-21T06:57:51.869Z,1037.7
2017-12-21T06:58:51.245Z,1037.7
2017-12-21T06:59:51.444Z,1037.7
2017-12-21T07:00:51.210Z,1037.6
2017-12-21T07:01:51.238Z,1037.7
2017-12-21T07:02:51.258Z,1037.7
2017-12-21T07:03:51.611Z,1037.7
2017-12-21T07:04:51.227Z,1037.8
2017-12-21T07:05:51.248Z,1037.9
2017-12-21T07:07:06.193Z,1037.9
2017-12-21T07:07:51.792Z,1037.8
2017-12-21T07:08:51.328Z,1037.8
2017-12-21T07:09:51.251Z,1037.9
2017-12-21T07:10:51.239Z,1037.9
2017-12-21T07:11:51.474Z,1038
2017-12-21T07:12:51.271Z,1037.9
2017-12-21T07:13:51.446Z,1037.9
2017-12-21T07:14:51.468Z,1037.9
2017-12-21T07:15:51.488Z,1037.9
2017-12-21T07:16:51.268Z,1038
2017-12-21T07:17:51.243Z,1038
2017-12-21T07:18:51.610Z,1037.9
2017-12-21T07:19:51.474Z,1038
2017-12-21T07:20:51.481Z,1038
2017-12-21T07:21:51.253Z,1038
2017-12-21T07:22:51.678Z,1038
2017-12-21T07:23:51.817Z,1038
2017-12-21T07:24:51.425Z,1038
2017-12-21T07:25:51.490Z,1038
2017-12-21T07:26:56.901Z,1036.6
2017-12-21T07:27:51.635Z,1038
2017-12-21T07:28:51.693Z,1038
2017-12-21T07:29:51.927Z,1038.1
2017-12-21T07:30:51.437Z,1038
2017-12-21T07:31:51.931Z,1038
2017-12-21T07:32:51.285Z,1038
2017-12-21T07:33:51.467Z,1038
2017-12-21T07:34:51.441Z,1038
2017-12-21T07:35:51.312Z,1038.1
2017-12-21T07:36:51.450Z,1038.1
2017-12-21T07:37:51.612Z,1038.1
2017-12-21T07:38:51.271Z,1038.2
2017-12-21T07:39:51.428Z,1038.1
2017-12-21T07:40:51.442Z,1038.1
2017-12-21T07:41:51.295Z,1038.1
2017-12-21T07:43:51.912Z,1038.1
2017-12-21T07:51:11.124Z,1038.1
2017-12-21T07:52:11.545Z,1038.1
2017-12-21T07:53:11.395Z,1038.1
2017-12-21T07:54:01.213Z,1038.1
2017-12-21T07:55:01.403Z,1038
2017-12-21T07:56:01.409Z,1038.1
2017-12-21T07:57:01.570Z,1038.1
2017-12-21T07:58:01.624Z,1038.1
2017-12-21T07:59:01.425Z,1038.1
2017-12-21T08:00:01.416Z,1038.1
2017-12-21T08:01:01.564Z,1037.9
2017-12-21T08:02:01.672Z,1038
2017-12-21T08:03:01.383Z,1038
2017-12-21T08:04:01.371Z,1037.9
2017-12-21T08:05:01.199Z,1038
2017-12-21T08:06:01.201Z,1037.9
2017-12-21T08:07:01.914Z,1037.9
2017-12-21T08:08:01.353Z,1037.9
2017-12-21T08:09:01.364Z,1037.9
2017-12-21T08:10:01.197Z,1038
2017-12-21T08:11:01.408Z,1037.9
2017-12-21T08:12:01.641Z,1037.9
2017-12-21T08:13:01.609Z,1037.9
2017-12-21T08:14:01.227Z,1037.9
2017-12-21T08:15:01.591Z,1037.9
2017-12-21T08:17:54.176Z,1037.9
2017-12-21T08:18:54.367Z,1037.9
2017-12-21T08:19:54.369Z,1037.9
2017-12-21T08:20:54.012Z,1038
2017-12-21T08:21:54.239Z,1037.9
2017-12-21T08:22:54.742Z,1038
2017-12-21T08:23:54.164Z,1038
2017-12-21T08:24:54.184Z,1038
2017-12-21T08:25:54.384Z,1038.1
2017-12-21T08:26:54.044Z,1038
2017-12-21T08:27:54.034Z,1038.1
2017-12-21T08:28:54.417Z,1038.1
2017-12-21T08:29:54.006Z,1038.1
2017-12-21T08:30:54.213Z,1038.1
2017-12-21T08:31:54.019Z,1038.1
2017-12-21T08:32:54.415Z,1038.1
2017-12-21T08:33:54.207Z,1038.1
2017-12-21T08:34:54.149Z,1038.1
2017-12-21T08:35:53.992Z,1038.1
2017-12-21T08:36:53.992Z,1038.1
2017-12-21T08:37:53.998Z,1038.1
2017-12-21T08:38:54.210Z,1038.1
2017-12-21T08:39:53.986Z,1038.1
2017-12-21T08:40:54.606Z,1038.1
2017-12-21T08:41:54.408Z,1038.1
2017-12-21T08:42:54.209Z,1038.1
2017-12-21T08:43:54.236Z,1038.1
2017-12-21T08:44:54.013Z,1038.1
2017-12-21T08:45:54.472Z,1038.1
2017-12-21T08:46:54.230Z,1038.1
2017-12-21T08:47:54.270Z,1038.1
2017-12-21T08:48:54.226Z,1038.2
2017-12-21T08:49:54.417Z,1038.1
2017-12-21T08:50:54.513Z,1038.1
2017-12-21T08:51:54.204Z,1038.2
2017-12-21T08:52:54.401Z,1038.2
2017-12-21T08:53:54.021Z,1038.2
2017-12-21T08:54:54.206Z,1038.2
2017-12-21T08:55:54.317Z,1038.2
2017-12-21T08:56:54.186Z,1038.2
2017-12-21T08:57:54.637Z,1038.3
2017-12-21T08:58:54.562Z,1038.2
2017-12-21T08:59:54.221Z,1038.2
2017-12-21T09:00:54.058Z,1038.2
2017-12-21T09:01:54.207Z,1038.3
2017-12-21T09:02:54.232Z,1038.2
2017-12-21T09:03:54.373Z,1038.3
2017-12-21T09:04:54.206Z,1038.3
2017-12-21T09:05:54.225Z,1038.3
2017-12-21T09:06:54.210Z,1038.3
2017-12-21T09:20:51.157Z,1038.2
2017-12-21T09:21:53.440Z,1038.2
2017-12-21T09:22:33.669Z,1038.2
2017-12-21T09:24:16.334Z,1038.3
2017-12-21T09:25:16.176Z,1038.3
2017-12-21T09:26:16.377Z,1038.3
2017-12-21T09:28:17.101Z,1038.3
2017-12-21T09:28:27.287Z,1038.3
2017-12-21T09:28:36.705Z,1038.3
2017-12-21T09:33:01.564Z,1038.3
2017-12-21T09:35:24.083Z,1038.3
2017-12-21T09:36:03.552Z,1038.3
2017-12-21T09:36:18.128Z,1038.2
2017-12-21T09:36:31.615Z,1038.3
2017-12-21T09:37:31.633Z,1038.4
2017-12-21T09:38:15.920Z,1038.4
2017-12-21T09:38:27.495Z,1038.4
2017-12-21T09:39:27.764Z,1038.4
2017-12-21T09:40:27.328Z,1038.4
2017-12-21T09:41:27.606Z,1038.4
2017-12-21T09:42:27.329Z,1038.4
2017-12-21T09:42:50.419Z,1038.4
2017-12-21T09:57:55.547Z,1038.4
2017-12-21T09:58:57.047Z,1038.5
2017-12-21T09:59:28.787Z,1038.4
2017-12-21T09:59:45.724Z,1038.4
2017-12-21T10:00:45.275Z,1038.5
2017-12-21T10:01:44.684Z,1038.4
2017-12-21T10:02:45.473Z,1038.4
2017-12-21T10:03:44.750Z,1038.4
2017-12-21T10:04:44.626Z,1038.4
2017-12-21T10:05:44.939Z,1038.4
2017-12-21T10:06:44.557Z,1038.4
2017-12-21T10:07:44.731Z,1038.4
2017-12-21T10:08:44.608Z,1038.4
2017-12-21T10:09:44.888Z,1038.4
2017-12-21T10:10:44.514Z,1038.4
2017-12-21T10:11:44.539Z,1038.4
2017-12-21T10:12:45.884Z,1038.4
2017-12-21T10:13:44.987Z,1038.4
2017-12-21T10:14:44.592Z,1038.4
2017-12-21T10:15:44.736Z,1038.4
2017-12-21T10:16:44.825Z,1038.4
2017-12-21T10:17:44.733Z,1038.4
2017-12-21T10:18:45.603Z,1038.4
2017-12-21T10:19:46.153Z,1038.4
2017-12-21T10:20:46.140Z,1038.4
2017-12-21T10:21:46.034Z,1038.4
2017-12-21T10:22:46.123Z,1038.4
2017-12-21T10:23:44.875Z,1038.4
2017-12-21T10:24:44.543Z,1038.4
2017-12-21T10:25:44.780Z,1038.4
2017-12-21T10:26:44.861Z,1038.4
2017-12-21T10:27:44.765Z,1038.4
2017-12-21T10:28:44.780Z,1038.4
2017-12-21T10:29:45.011Z,1038.3
2017-12-21T10:30:44.386Z,1038.4
2017-12-21T10:31:44.420Z,1038.4
2017-12-21T10:32:44.558Z,1038.4
2017-12-21T10:33:44.361Z,1038.4
2017-12-21T10:34:44.531Z,1038.4
2017-12-21T10:35:44.508Z,1038.4
2017-12-21T10:36:44.751Z,1038.4
2017-12-21T10:37:44.557Z,1038.4
2017-12-21T10:38:44.512Z,1038.3
2017-12-21T10:39:44.614Z,1038.3
2017-12-21T10:40:44.772Z,1038.3
2017-12-21T10:41:44.722Z,1038.3
2017-12-21T10:42:44.822Z,1038.2
2017-12-21T10:43:44.785Z,1038.3
2017-12-21T10:44:45.590Z,1038.2
2017-12-21T10:45:44.359Z,1038.2
2017-12-21T10:46:44.602Z,1038.2
2017-12-21T10:47:44.416Z,1038.1
2017-12-21T10:48:45.658Z,1038
2017-12-21T10:49:46.033Z,1038
2017-12-21T10:50:45.604Z,1038.1
2017-12-21T10:51:45.069Z,1038.1
2017-12-21T10:52:44.592Z,1038.1
2017-12-21T10:53:44.952Z,1038.1
2017-12-21T10:54:44.587Z,1038
2017-12-21T10:55:44.746Z,1038.1
2017-12-21T10:56:44.752Z,1038.1
2017-12-21T10:57:44.559Z,1038.1
2017-12-21T10:58:44.782Z,1038
2017-12-21T10:59:44.765Z,1038
2017-12-21T11:00:44.670Z,1037.9
2017-12-21T11:01:44.520Z,1038
2017-12-21T11:02:44.599Z,1038.1
2017-12-21T11:03:44.929Z,1038
2017-12-21T11:04:45.020Z,1038
2017-12-21T11:05:44.380Z,1038
2017-12-21T11:06:44.761Z,1038
2017-12-21T11:07:44.937Z,1038
2017-12-21T11:08:44.713Z,1038
2017-12-21T11:09:44.614Z,1038
2017-12-21T11:10:44.768Z,1037.9
2017-12-21T11:11:44.580Z,1037.9
2017-12-21T11:12:44.361Z,1037.9
2017-12-21T11:13:44.596Z,1037.9
2017-12-21T11:14:45.054Z,1037.9
2017-12-21T11:15:44.567Z,1037.9
2017-12-21T11:16:44.823Z,1037.9
2017-12-21T11:17:44.385Z,1037.8
2017-12-21T11:18:44.775Z,1037.9
2017-12-21T11:19:44.617Z,1037.9
2017-12-21T11:20:44.790Z,1037.8
2017-12-21T11:21:44.467Z,1037.8
2017-12-21T11:22:44.799Z,1037.8
2017-12-21T11:23:44.339Z,1037.8
2017-12-21T11:24:44.374Z,1037.8
2017-12-21T11:25:44.792Z,1037.8
2017-12-21T11:26:44.529Z,1037.8
2017-12-21T11:27:45.168Z,1037.8
2017-12-21T11:28:44.608Z,1037.8
2017-12-21T11:29:44.749Z,1037.7
2017-12-21T11:30:44.405Z,1037.7
2017-12-21T11:31:44.734Z,1037.7
2017-12-21T11:32:44.849Z,1037.7
2017-12-21T11:33:44.736Z,1037.7
2017-12-21T11:34:44.568Z,1037.7
2017-12-21T11:35:44.583Z,1037.7
2017-12-21T11:36:44.599Z,1037.7
2017-12-21T11:37:44.637Z,1037.7
2017-12-21T11:38:44.777Z,1037.7
2017-12-21T11:39:44.372Z,1037.7
2017-12-21T11:40:44.513Z,1037.6
2017-12-21T11:41:44.764Z,1037.6
2017-12-21T11:42:44.466Z,1037.6
2017-12-21T11:43:44.945Z,1037.6
2017-12-21T11:44:44.816Z,1037.6
2017-12-21T11:45:44.556Z,1037.6
2017-12-21T11:46:44.574Z,1037.6
2017-12-21T11:47:44.725Z,1037.5
2017-12-21T11:48:44.590Z,1037.5
2017-12-21T11:49:44.822Z,1037.5
2017-12-21T11:50:44.656Z,1037.5
2017-12-21T11:51:44.453Z,1037.5
2017-12-21T11:52:44.743Z,1037.5
2017-12-21T11:53:44.453Z,1037.4
2017-12-21T11:54:44.766Z,1037.4
2017-12-21T11:55:44.639Z,1037.4
2017-12-21T11:56:44.625Z,1037.4
2017-12-21T11:57:44.759Z,1037.5
2017-12-21T11:58:45.092Z,1037.5
2017-12-21T11:59:44.761Z,1037.5
2017-12-21T12:00:44.761Z,1037.5
2017-12-21T12:01:44.397Z,1037.5
2017-12-21T12:02:44.423Z,1037.5
2017-12-21T12:03:44.410Z,1037.5
2017-12-21T12:04:44.594Z,1037.5
2017-12-21T12:05:44.496Z,1037.5
2017-12-21T12:06:44.838Z,1037.5
2017-12-21T12:07:44.597Z,1037.5
2017-12-21T12:08:44.805Z,1037.5
2017-12-21T12:09:44.678Z,1037.5
2017-12-21T12:10:44.721Z,1037.5
2017-12-21T12:11:44.868Z,1037.5
2017-12-21T12:12:44.405Z,1037.5
2017-12-21T12:13:44.573Z,1037.5
2017-12-21T12:14:45.028Z,1037.5
2017-12-21T12:15:44.652Z,1037.4
2017-12-21T12:16:44.842Z,1037.4
2017-12-21T12:17:44.834Z,1037.4
2017-12-21T12:18:44.591Z,1037.4
2017-12-21T12:19:44.681Z,1037.4
2017-12-21T12:20:44.690Z,1037.3
2017-12-21T12:21:44.597Z,1037.3
2017-12-21T12:22:44.853Z,1037.4
2017-12-21T12:23:44.803Z,1037.3
2017-12-21T12:24:44.443Z,1037.3
2017-12-21T12:25:44.784Z,1037.3
2017-12-21T12:26:45.019Z,1037.3
2017-12-21T12:27:44.804Z,1037.3
2017-12-21T12:28:44.456Z,1037.3
2017-12-21T12:29:44.602Z,1037.3
2017-12-21T12:30:44.498Z,1037.3
2017-12-21T12:31:44.975Z,1037.1
2017-12-21T12:32:44.595Z,1037.2
2017-12-21T12:33:44.853Z,1037.2
2017-12-21T12:34:44.885Z,1037.2
2017-12-21T12:35:45.108Z,1037.2
2017-12-21T12:36:44.664Z,1037.2
2017-12-21T12:37:44.656Z,1037.2
2017-12-21T12:38:44.398Z,1037.2
2017-12-21T12:39:44.405Z,1037.1
2017-12-21T12:40:44.798Z,1037.1
2017-12-21T12:41:44.862Z,1037.2
2017-12-21T12:42:44.806Z,1037.1
2017-12-21T12:43:44.565Z,1037.1
2017-12-21T12:44:44.809Z,1037.1
2017-12-21T12:45:44.909Z,1037.1
2017-12-21T12:46:44.886Z,1037
2017-12-21T12:47:44.779Z,1037.1
2017-12-21T12:48:44.970Z,1037.1
2017-12-21T12:49:44.870Z,1037.1
2017-12-21T12:50:44.642Z,1037
2017-12-21T12:51:44.644Z,1037.1
2017-12-21T12:52:44.624Z,1037.1
2017-12-21T12:53:44.427Z,1037.1
2017-12-21T12:54:44.647Z,1037
2017-12-21T12:55:44.581Z,1037
2017-12-21T12:56:44.695Z,1036.9
2017-12-21T12:57:44.840Z,1037
2017-12-21T12:58:44.979Z,1037
2017-12-21T12:59:44.792Z,1037
2017-12-21T13:00:44.663Z,1036.9
2017-12-21T13:01:44.662Z,1036.8
2017-12-21T13:02:44.670Z,1036.9
2017-12-21T13:03:44.882Z,1036.9
2017-12-21T13:04:44.688Z,1036.9
2017-12-21T13:05:44.728Z,1036.9
2017-12-21T13:06:44.816Z,1036.8
2017-12-21T13:07:44.440Z,1036.8
2017-12-21T13:08:44.507Z,1036.9
2017-12-21T13:09:44.657Z,1036.9
2017-12-21T13:10:44.732Z,1036.9
2017-12-21T13:11:44.940Z,1036.9